sensor_id;sensor_type;location;lat;lon;timestamp;temperature;humidity
31695;DHT22;18289;51.330;4.946;2022-12-18T00:00:29;-4.10;99.90
31695;DHT22;18289;51.330;4.946;2022-12-18T00:02:55;-4.10;99.90
31695;DHT22;18289;51.330;4.946;2022-12-18T00:05:21;-4.20;99.90
31695;DHT22;18289;51.330;4.946;2022-12-18T00:07:46;-4.20;99.90
31695;DHT22;18289;51.330;4.946;2022-12-18T00:10:12;-4.30;99.90
31695;DHT22;18289;51.330;4.946;2022-12-18T00:12:37;-4.10;99.90
31695;DHT22;18289;51.330;4.946;2022-12-18T00:15:03;-4.30;99.90
31695;DHT22;18289;51.330;4.946;2022-12-18T00:17:29;-4.30;99.90
31695;DHT22;18289;51.330;4.946;2022-12-18T00:19:54;-4.30;99.90
31695;DHT22;18289;51.330;4.946;2022-12-18T00:22:20;-4.30;99.90
31695;DHT22;18289;51.330;4.946;2022-12-18T00:24:45;-4.20;99.90
31695;DHT22;18289;51.330;4.946;2022-12-18T00:27:11;-4.30;99.90
31695;DHT22;18289;51.330;4.946;2022-12-18T00:29:36;-4.20;99.90
31695;DHT22;18289;51.330;4.946;2022-12-18T00:32:05;-4.20;99.90
31695;DHT22;18289;51.330;4.946;2022-12-18T00:34:30;-4.30;99.90
31695;DHT22;18289;51.330;4.946;2022-12-18T00:36:56;-4.30;99.90
31695;DHT22;18289;51.330;4.946;2022-12-18T00:39:21;-4.30;99.90
31695;DHT22;18289;51.330;4.946;2022-12-18T00:41:47;-4.30;99.90
31695;DHT22;18289;51.330;4.946;2022-12-18T00:44:31;-4.20;99.90
31695;DHT22;18289;51.330;4.946;2022-12-18T00:46:56;-4.20;99.90
31695;DHT22;18289;51.330;4.946;2022-12-18T00:49:22;-4.40;99.90
31695;DHT22;18289;51.330;4.946;2022-12-18T00:51:48;-4.50;99.90
31695;DHT22;18289;51.330;4.946;2022-12-18T00:54:13;-4.40;99.90
31695;DHT22;18289;51.330;4.946;2022-12-18T00:56:39;-4.40;99.90
31695;DHT22;18289;51.330;4.946;2022-12-18T00:59:05;-4.40;99.90
31695;DHT22;18289;51.330;4.946;2022-12-18T01:01:31;-4.60;99.90
31695;DHT22;18289;51.330;4.946;2022-12-18T01:03:58;-4.50;99.90
31695;DHT22;18289;51.330;4.946;2022-12-18T01:06:24;-4.40;99.90
31695;DHT22;18289;51.330;4.946;2022-12-18T01:08:49;-4.50;99.90
31695;DHT22;18289;51.330;4.946;2022-12-18T01:11:16;-4.40;99.90
31695;DHT22;18289;51.330;4.946;2022-12-18T01:13:42;-4.60;99.90
31695;DHT22;18289;51.330;4.946;2022-12-18T01:16:08;-4.60;99.90
31695;DHT22;18289;51.330;4.946;2022-12-18T01:18:36;-4.50;99.90
31695;DHT22;18289;51.330;4.946;2022-12-18T01:21:05;-4.60;99.90
31695;DHT22;18289;51.330;4.946;2022-12-18T01:23:31;-4.50;99.90
31695;DHT22;18289;51.330;4.946;2022-12-18T01:25:56;-4.60;99.90
31695;DHT22;18289;51.330;4.946;2022-12-18T01:28:22;-4.60;99.90
31695;DHT22;18289;51.330;4.946;2022-12-18T01:30:47;-4.70;99.90
31695;DHT22;18289;51.330;4.946;2022-12-18T01:33:13;-4.80;99.90
31695;DHT22;18289;51.330;4.946;2022-12-18T01:35:42;-4.70;99.90
31695;DHT22;18289;51.330;4.946;2022-12-18T01:38:07;-4.80;99.90
31695;DHT22;18289;51.330;4.946;2022-12-18T01:40:33;-4.80;99.90
31695;DHT22;18289;51.330;4.946;2022-12-18T01:42:58;-4.80;99.90
31695;DHT22;18289;51.330;4.946;2022-12-18T01:45:25;-4.70;99.90
31695;DHT22;18289;51.330;4.946;2022-12-18T01:47:58;-4.70;99.90
31695;DHT22;18289;51.330;4.946;2022-12-18T01:53:01;-4.80;99.90
31695;DHT22;18289;51.330;4.946;2022-12-18T01:55:28;-4.90;99.90
31695;DHT22;18289;51.330;4.946;2022-12-18T01:57:55;-4.90;99.90
31695;DHT22;18289;51.330;4.946;2022-12-18T02:00:22;-5.00;99.90
31695;DHT22;18289;51.330;4.946;2022-12-18T02:02:48;-4.90;99.90
31695;DHT22;18289;51.330;4.946;2022-12-18T02:05:15;-4.90;99.90
31695;DHT22;18289;51.330;4.946;2022-12-18T02:07:48;-5.00;99.90
31695;DHT22;18289;51.330;4.946;2022-12-18T02:12:57;-4.90;99.90
31695;DHT22;18289;51.330;4.946;2022-12-18T02:15:31;-5.00;99.90
31695;DHT22;18289;51.330;4.946;2022-12-18T02:18:08;-5.00;99.90
31695;DHT22;18289;51.330;4.946;2022-12-18T02:20:45;-4.90;99.90
31695;DHT22;18289;51.330;4.946;2022-12-18T02:28:18;-5.00;99.90
31695;DHT22;18289;51.330;4.946;2022-12-18T02:30:46;-4.90;99.90
31695;DHT22;18289;51.330;4.946;2022-12-18T02:33:13;-4.90;99.90
31695;DHT22;18289;51.330;4.946;2022-12-18T02:35:40;-4.80;99.90
31695;DHT22;18289;51.330;4.946;2022-12-18T02:38:06;-5.00;99.90
31695;DHT22;18289;51.330;4.946;2022-12-18T02:40:32;-5.10;99.90
31695;DHT22;18289;51.330;4.946;2022-12-18T02:43:08;-5.00;99.90
31695;DHT22;18289;51.330;4.946;2022-12-18T02:45:33;-5.10;99.90
31695;DHT22;18289;51.330;4.946;2022-12-18T02:47:59;-5.00;99.90
31695;DHT22;18289;51.330;4.946;2022-12-18T02:50:26;-5.00;99.90
31695;DHT22;18289;51.330;4.946;2022-12-18T02:55:56;-5.10;99.90
31695;DHT22;18289;51.330;4.946;2022-12-18T02:58:15;-5.20;99.90
31695;DHT22;18289;51.330;4.946;2022-12-18T03:01:02;-5.10;99.90
31695;DHT22;18289;51.330;4.946;2022-12-18T03:03:39;-5.10;99.90
31695;DHT22;18289;51.330;4.946;2022-12-18T03:06:08;-5.20;99.90
31695;DHT22;18289;51.330;4.946;2022-12-18T03:08:41;-5.40;99.90
31695;DHT22;18289;51.330;4.946;2022-12-18T03:11:08;-5.30;99.90
31695;DHT22;18289;51.330;4.946;2022-12-18T03:16:30;-5.30;99.90
31695;DHT22;18289;51.330;4.946;2022-12-18T03:19:03;-5.30;99.90
31695;DHT22;18289;51.330;4.946;2022-12-18T03:21:31;-5.30;99.90
31695;DHT22;18289;51.330;4.946;2022-12-18T03:23:58;-5.20;99.90
31695;DHT22;18289;51.330;4.946;2022-12-18T03:26:25;-5.30;99.90
31695;DHT22;18289;51.330;4.946;2022-12-18T03:29:03;-5.20;99.90
31695;DHT22;18289;51.330;4.946;2022-12-18T03:31:30;-5.20;99.90
31695;DHT22;18289;51.330;4.946;2022-12-18T03:34:00;-5.30;99.90
31695;DHT22;18289;51.330;4.946;2022-12-18T03:36:26;-5.30;99.90
31695;DHT22;18289;51.330;4.946;2022-12-18T03:38:58;-5.20;99.90
31695;DHT22;18289;51.330;4.946;2022-12-18T03:41:29;-5.30;99.90
31695;DHT22;18289;51.330;4.946;2022-12-18T03:47:06;-5.30;99.90
31695;DHT22;18289;51.330;4.946;2022-12-18T03:49:38;-5.30;99.90
31695;DHT22;18289;51.330;4.946;2022-12-18T03:52:11;-5.40;99.90
31695;DHT22;18289;51.330;4.946;2022-12-18T03:54:37;-5.40;99.90
31695;DHT22;18289;51.330;4.946;2022-12-18T03:57:06;-5.40;99.90
31695;DHT22;18289;51.330;4.946;2022-12-18T03:59:32;-5.40;99.90
31695;DHT22;18289;51.330;4.946;2022-12-18T04:01:58;-5.40;99.90
31695;DHT22;18289;51.330;4.946;2022-12-18T04:04:24;-5.50;99.90
31695;DHT22;18289;51.330;4.946;2022-12-18T04:06:51;-5.30;99.90
31695;DHT22;18289;51.330;4.946;2022-12-18T04:09:17;-5.30;99.90
31695;DHT22;18289;51.330;4.946;2022-12-18T04:11:43;-5.50;99.90
31695;DHT22;18289;51.330;4.946;2022-12-18T04:14:11;-5.30;99.90
31695;DHT22;18289;51.330;4.946;2022-12-18T04:16:37;-5.40;99.90
31695;DHT22;18289;51.330;4.946;2022-12-18T04:19:03;-5.40;99.90
31695;DHT22;18289;51.330;4.946;2022-12-18T04:21:29;-5.40;99.90
31695;DHT22;18289;51.330;4.946;2022-12-18T04:23:54;-5.40;99.90
31695;DHT22;18289;51.330;4.946;2022-12-18T04:26:20;-5.30;99.90
31695;DHT22;18289;51.330;4.946;2022-12-18T04:28:45;-5.50;99.90
31695;DHT22;18289;51.330;4.946;2022-12-18T04:31:11;-5.40;99.90
31695;DHT22;18289;51.330;4.946;2022-12-18T04:33:37;-5.40;99.90
31695;DHT22;18289;51.330;4.946;2022-12-18T04:36:03;-5.50;99.90
31695;DHT22;18289;51.330;4.946;2022-12-18T04:38:28;-5.50;99.90
31695;DHT22;18289;51.330;4.946;2022-12-18T04:40:54;-5.40;99.90
31695;DHT22;18289;51.330;4.946;2022-12-18T04:43:19;-5.40;99.90
31695;DHT22;18289;51.330;4.946;2022-12-18T04:45:45;-5.40;99.90
31695;DHT22;18289;51.330;4.946;2022-12-18T04:48:11;-5.50;99.90
31695;DHT22;18289;51.330;4.946;2022-12-18T04:50:37;-5.40;99.90
31695;DHT22;18289;51.330;4.946;2022-12-18T04:53:02;-5.30;99.90
31695;DHT22;18289;51.330;4.946;2022-12-18T04:55:28;-5.30;99.90
31695;DHT22;18289;51.330;4.946;2022-12-18T04:57:54;-5.40;99.90
31695;DHT22;18289;51.330;4.946;2022-12-18T05:00:19;-5.20;99.90
31695;DHT22;18289;51.330;4.946;2022-12-18T05:02:45;-5.50;99.90
31695;DHT22;18289;51.330;4.946;2022-12-18T05:05:11;-5.60;99.90
31695;DHT22;18289;51.330;4.946;2022-12-18T05:07:36;-5.40;99.90
31695;DHT22;18289;51.330;4.946;2022-12-18T05:10:02;-5.50;99.90
31695;DHT22;18289;51.330;4.946;2022-12-18T05:12:31;-5.50;99.90
31695;DHT22;18289;51.330;4.946;2022-12-18T05:14:56;-5.40;99.90
31695;DHT22;18289;51.330;4.946;2022-12-18T05:17:22;-5.40;99.90
31695;DHT22;18289;51.330;4.946;2022-12-18T05:19:47;-5.60;99.90
31695;DHT22;18289;51.330;4.946;2022-12-18T05:22:13;-5.40;99.90
31695;DHT22;18289;51.330;4.946;2022-12-18T05:24:39;-5.50;99.90
31695;DHT22;18289;51.330;4.946;2022-12-18T05:27:04;-5.40;99.90
31695;DHT22;18289;51.330;4.946;2022-12-18T05:29:30;-5.50;99.90
31695;DHT22;18289;51.330;4.946;2022-12-18T05:31:55;-5.50;99.90
31695;DHT22;18289;51.330;4.946;2022-12-18T05:34:21;-5.50;99.90
31695;DHT22;18289;51.330;4.946;2022-12-18T05:36:46;-5.50;99.90
31695;DHT22;18289;51.330;4.946;2022-12-18T05:39:12;-5.50;99.90
31695;DHT22;18289;51.330;4.946;2022-12-18T05:41:37;-5.60;99.90
31695;DHT22;18289;51.330;4.946;2022-12-18T05:44:03;-5.80;99.90
31695;DHT22;18289;51.330;4.946;2022-12-18T05:46:29;-5.70;99.90
31695;DHT22;18289;51.330;4.946;2022-12-18T05:48:54;-5.80;99.90
31695;DHT22;18289;51.330;4.946;2022-12-18T05:51:21;-5.70;99.90
31695;DHT22;18289;51.330;4.946;2022-12-18T05:53:47;-5.70;99.90
31695;DHT22;18289;51.330;4.946;2022-12-18T05:56:14;-5.70;99.90
31695;DHT22;18289;51.330;4.946;2022-12-18T05:58:40;-5.60;99.90
31695;DHT22;18289;51.330;4.946;2022-12-18T06:01:25;-5.70;99.90
31695;DHT22;18289;51.330;4.946;2022-12-18T06:03:51;-5.80;99.90
31695;DHT22;18289;51.330;4.946;2022-12-18T06:06:20;-5.60;99.90
31695;DHT22;18289;51.330;4.946;2022-12-18T06:08:46;-5.80;99.90
31695;DHT22;18289;51.330;4.946;2022-12-18T06:11:11;-5.80;99.90
31695;DHT22;18289;51.330;4.946;2022-12-18T06:13:37;-5.60;99.90
31695;DHT22;18289;51.330;4.946;2022-12-18T06:16:06;-5.80;99.90
31695;DHT22;18289;51.330;4.946;2022-12-18T06:18:33;-5.70;99.90
31695;DHT22;18289;51.330;4.946;2022-12-18T06:20:59;-5.60;99.90
31695;DHT22;18289;51.330;4.946;2022-12-18T06:23:25;-5.70;99.90
31695;DHT22;18289;51.330;4.946;2022-12-18T06:25:50;-5.70;99.90
31695;DHT22;18289;51.330;4.946;2022-12-18T06:28:16;-5.70;99.90
31695;DHT22;18289;51.330;4.946;2022-12-18T06:30:45;-5.70;99.90
31695;DHT22;18289;51.330;4.946;2022-12-18T06:33:11;-5.80;99.90
31695;DHT22;18289;51.330;4.946;2022-12-18T06:35:37;-5.70;99.90
31695;DHT22;18289;51.330;4.946;2022-12-18T06:38:02;-5.80;99.90
31695;DHT22;18289;51.330;4.946;2022-12-18T06:40:28;-5.70;99.90
31695;DHT22;18289;51.330;4.946;2022-12-18T06:42:54;-5.70;99.90
31695;DHT22;18289;51.330;4.946;2022-12-18T06:45:20;-5.60;99.90
31695;DHT22;18289;51.330;4.946;2022-12-18T06:47:45;-5.80;99.90
31695;DHT22;18289;51.330;4.946;2022-12-18T06:50:11;-5.80;99.90
31695;DHT22;18289;51.330;4.946;2022-12-18T06:52:37;-5.70;99.90
31695;DHT22;18289;51.330;4.946;2022-12-18T06:55:02;-5.90;99.90
31695;DHT22;18289;51.330;4.946;2022-12-18T06:57:28;-5.80;99.90
31695;DHT22;18289;51.330;4.946;2022-12-18T06:59:54;-5.70;99.90
31695;DHT22;18289;51.330;4.946;2022-12-18T07:02:19;-5.90;99.90
31695;DHT22;18289;51.330;4.946;2022-12-18T07:04:45;-5.80;99.90
31695;DHT22;18289;51.330;4.946;2022-12-18T07:07:10;-5.80;99.90
31695;DHT22;18289;51.330;4.946;2022-12-18T07:09:36;-5.80;99.90
31695;DHT22;18289;51.330;4.946;2022-12-18T07:12:02;-5.70;99.90
31695;DHT22;18289;51.330;4.946;2022-12-18T07:14:27;-5.80;99.90
31695;DHT22;18289;51.330;4.946;2022-12-18T07:16:53;-5.80;99.90
31695;DHT22;18289;51.330;4.946;2022-12-18T07:19:19;-5.80;99.90
31695;DHT22;18289;51.330;4.946;2022-12-18T07:21:44;-5.80;99.90
31695;DHT22;18289;51.330;4.946;2022-12-18T07:24:10;-5.60;99.90
31695;DHT22;18289;51.330;4.946;2022-12-18T07:26:35;-5.70;99.90
31695;DHT22;18289;51.330;4.946;2022-12-18T07:29:01;-5.60;99.90
31695;DHT22;18289;51.330;4.946;2022-12-18T07:31:26;-5.60;99.90
31695;DHT22;18289;51.330;4.946;2022-12-18T07:33:52;-5.70;99.90
31695;DHT22;18289;51.330;4.946;2022-12-18T07:36:18;-5.60;99.90
31695;DHT22;18289;51.330;4.946;2022-12-18T07:38:46;-5.50;99.90
31695;DHT22;18289;51.330;4.946;2022-12-18T07:41:12;-5.40;99.90
31695;DHT22;18289;51.330;4.946;2022-12-18T07:43:38;-5.50;99.90
31695;DHT22;18289;51.330;4.946;2022-12-18T07:46:04;-5.50;99.90
31695;DHT22;18289;51.330;4.946;2022-12-18T07:48:30;-5.40;99.90
31695;DHT22;18289;51.330;4.946;2022-12-18T07:51:02;-5.30;99.90
31695;DHT22;18289;51.330;4.946;2022-12-18T07:53:29;-5.40;99.90
31695;DHT22;18289;51.330;4.946;2022-12-18T07:55:58;-5.30;99.90
31695;DHT22;18289;51.330;4.946;2022-12-18T07:58:24;-5.40;99.90
31695;DHT22;18289;51.330;4.946;2022-12-18T08:00:50;-5.50;99.90
31695;DHT22;18289;51.330;4.946;2022-12-18T08:03:15;-5.40;99.90
31695;DHT22;18289;51.330;4.946;2022-12-18T08:05:41;-5.40;99.90
31695;DHT22;18289;51.330;4.946;2022-12-18T08:08:07;-5.20;99.90
31695;DHT22;18289;51.330;4.946;2022-12-18T08:10:32;-5.40;99.90
31695;DHT22;18289;51.330;4.946;2022-12-18T08:12:58;-5.20;99.90
31695;DHT22;18289;51.330;4.946;2022-12-18T08:15:23;-5.20;99.90
31695;DHT22;18289;51.330;4.946;2022-12-18T08:17:49;-5.10;99.90
31695;DHT22;18289;51.330;4.946;2022-12-18T08:20:14;-5.10;99.90
31695;DHT22;18289;51.330;4.946;2022-12-18T08:22:42;-4.90;99.90
31695;DHT22;18289;51.330;4.946;2022-12-18T08:25:08;-4.90;99.90
31695;DHT22;18289;51.330;4.946;2022-12-18T08:27:33;-4.90;99.90
31695;DHT22;18289;51.330;4.946;2022-12-18T08:29:59;-4.70;99.90
31695;DHT22;18289;51.330;4.946;2022-12-18T08:32:25;-4.80;99.90
31695;DHT22;18289;51.330;4.946;2022-12-18T08:34:51;-4.70;99.90
31695;DHT22;18289;51.330;4.946;2022-12-18T08:37:17;-4.60;99.90
31695;DHT22;18289;51.330;4.946;2022-12-18T08:39:43;-4.60;99.90
31695;DHT22;18289;51.330;4.946;2022-12-18T08:42:08;-4.50;99.90
31695;DHT22;18289;51.330;4.946;2022-12-18T08:44:52;-4.40;99.90
31695;DHT22;18289;51.330;4.946;2022-12-18T08:47:18;-4.50;99.90
31695;DHT22;18289;51.330;4.946;2022-12-18T08:49:44;-4.30;99.90
31695;DHT22;18289;51.330;4.946;2022-12-18T08:52:09;-4.20;99.90
31695;DHT22;18289;51.330;4.946;2022-12-18T08:54:35;-4.20;99.90
31695;DHT22;18289;51.330;4.946;2022-12-18T08:57:00;-4.10;99.90
31695;DHT22;18289;51.330;4.946;2022-12-18T08:59:27;-4.10;99.90
31695;DHT22;18289;51.330;4.946;2022-12-18T09:01:55;-4.00;99.90
31695;DHT22;18289;51.330;4.946;2022-12-18T09:04:21;-3.80;99.90
31695;DHT22;18289;51.330;4.946;2022-12-18T09:06:47;-3.80;99.90
31695;DHT22;18289;51.330;4.946;2022-12-18T09:09:12;-3.60;99.90
31695;DHT22;18289;51.330;4.946;2022-12-18T09:11:38;-3.50;99.90
31695;DHT22;18289;51.330;4.946;2022-12-18T09:14:03;-3.40;99.90
31695;DHT22;18289;51.330;4.946;2022-12-18T09:16:29;-3.40;99.90
31695;DHT22;18289;51.330;4.946;2022-12-18T09:18:55;-3.20;99.90
31695;DHT22;18289;51.330;4.946;2022-12-18T09:21:25;-3.20;99.90
31695;DHT22;18289;51.330;4.946;2022-12-18T09:23:51;-2.90;99.90
31695;DHT22;18289;51.330;4.946;2022-12-18T09:26:17;-2.80;99.90
31695;DHT22;18289;51.330;4.946;2022-12-18T09:28:43;-3.00;99.90
31695;DHT22;18289;51.330;4.946;2022-12-18T09:31:08;-2.80;99.90
31695;DHT22;18289;51.330;4.946;2022-12-18T09:33:35;-2.90;99.90
31695;DHT22;18289;51.330;4.946;2022-12-18T09:36:01;-2.60;99.90
31695;DHT22;18289;51.330;4.946;2022-12-18T09:38:30;-2.70;99.90
31695;DHT22;18289;51.330;4.946;2022-12-18T09:41:00;-2.80;99.90
31695;DHT22;18289;51.330;4.946;2022-12-18T09:43:30;-2.70;99.90
31695;DHT22;18289;51.330;4.946;2022-12-18T09:46:03;-2.40;99.90
31695;DHT22;18289;51.330;4.946;2022-12-18T09:53:44;-2.30;99.90
31695;DHT22;18289;51.330;4.946;2022-12-18T09:56:18;-2.20;99.90
31695;DHT22;18289;51.330;4.946;2022-12-18T09:58:49;-2.20;99.90
31695;DHT22;18289;51.330;4.946;2022-12-18T10:01:23;-2.20;99.90
31695;DHT22;18289;51.330;4.946;2022-12-18T10:03:49;-2.20;99.90
31695;DHT22;18289;51.330;4.946;2022-12-18T10:07:03;-2.10;99.90
31695;DHT22;18289;51.330;4.946;2022-12-18T10:09:06;-1.90;99.90
31695;DHT22;18289;51.330;4.946;2022-12-18T10:22:21;-1.90;99.90
31695;DHT22;18289;51.330;4.946;2022-12-18T10:24:56;-1.90;99.90
31695;DHT22;18289;51.330;4.946;2022-12-18T10:27:26;-1.80;99.90
31695;DHT22;18289;51.330;4.946;2022-12-18T10:29:52;-1.50;99.90
31695;DHT22;18289;51.330;4.946;2022-12-18T10:32:19;-1.60;99.90
31695;DHT22;18289;51.330;4.946;2022-12-18T10:34:54;-1.50;99.90
31695;DHT22;18289;51.330;4.946;2022-12-18T10:37:21;-1.40;99.90
31695;DHT22;18289;51.330;4.946;2022-12-18T10:40:04;-1.40;99.90
31695;DHT22;18289;51.330;4.946;2022-12-18T10:42:31;-1.30;99.90
31695;DHT22;18289;51.330;4.946;2022-12-18T10:45:01;-1.30;99.90
31695;DHT22;18289;51.330;4.946;2022-12-18T10:47:26;-1.30;99.90
31695;DHT22;18289;51.330;4.946;2022-12-18T10:49:52;-1.20;99.90
31695;DHT22;18289;51.330;4.946;2022-12-18T10:52:21;-1.10;99.90
31695;DHT22;18289;51.330;4.946;2022-12-18T10:54:52;-1.00;99.90
31695;DHT22;18289;51.330;4.946;2022-12-18T10:57:29;-1.10;99.90
31695;DHT22;18289;51.330;4.946;2022-12-18T10:59:56;-0.90;99.90
31695;DHT22;18289;51.330;4.946;2022-12-18T11:02:27;-0.80;99.90
31695;DHT22;18289;51.330;4.946;2022-12-18T11:04:59;-0.80;99.90
31695;DHT22;18289;51.330;4.946;2022-12-18T11:10:32;-0.60;99.90
31695;DHT22;18289;51.330;4.946;2022-12-18T11:13:09;-0.70;99.90
31695;DHT22;18289;51.330;4.946;2022-12-18T11:15:34;-0.50;99.90
31695;DHT22;18289;51.330;4.946;2022-12-18T11:18:00;-0.30;99.90
31695;DHT22;18289;51.330;4.946;2022-12-18T11:20:35;-0.40;99.90
31695;DHT22;18289;51.330;4.946;2022-12-18T11:23:01;-0.40;99.90
31695;DHT22;18289;51.330;4.946;2022-12-18T11:25:28;-0.10;99.90
31695;DHT22;18289;51.330;4.946;2022-12-18T11:30:23;-0.20;99.90
31695;DHT22;18289;51.330;4.946;2022-12-18T11:32:51;0.00;99.90
31695;DHT22;18289;51.330;4.946;2022-12-18T11:35:32;0.00;99.90
31695;DHT22;18289;51.330;4.946;2022-12-18T11:38:00;0.00;99.90
31695;DHT22;18289;51.330;4.946;2022-12-18T11:40:33;0.10;99.90
31695;DHT22;18289;51.330;4.946;2022-12-18T11:45:33;-0.10;99.90
31695;DHT22;18289;51.330;4.946;2022-12-18T11:53:10;0.20;99.90
31695;DHT22;18289;51.330;4.946;2022-12-18T11:58:11;0.00;99.90
31695;DHT22;18289;51.330;4.946;2022-12-18T12:00:41;0.10;99.90
31695;DHT22;18289;51.330;4.946;2022-12-18T12:08:06;0.10;99.90
31695;DHT22;18289;51.330;4.946;2022-12-18T12:10:42;0.40;99.90
31695;DHT22;18289;51.330;4.946;2022-12-18T12:13:19;0.30;99.90
31695;DHT22;18289;51.330;4.946;2022-12-18T12:26:26;0.30;99.90
31695;DHT22;18289;51.330;4.946;2022-12-18T12:34:18;0.30;99.90
31695;DHT22;18289;51.330;4.946;2022-12-18T12:39:34;0.30;99.90
31695;DHT22;18289;51.330;4.946;2022-12-18T12:42:01;0.20;99.90
31695;DHT22;18289;51.330;4.946;2022-12-18T12:44:47;0.10;99.90
31695;DHT22;18289;51.330;4.946;2022-12-18T12:47:21;0.20;99.90
31695;DHT22;18289;51.330;4.946;2022-12-18T12:49:49;0.30;99.90
31695;DHT22;18289;51.330;4.946;2022-12-18T12:52:16;0.30;99.90
31695;DHT22;18289;51.330;4.946;2022-12-18T12:54:42;0.30;99.90
31695;DHT22;18289;51.330;4.946;2022-12-18T12:57:30;0.50;99.90
31695;DHT22;18289;51.330;4.946;2022-12-18T13:00:05;0.50;99.90
31695;DHT22;18289;51.330;4.946;2022-12-18T13:05:23;0.60;99.90
31695;DHT22;18289;51.330;4.946;2022-12-18T13:15:23;0.30;99.90
31695;DHT22;18289;51.330;4.946;2022-12-18T13:17:56;0.40;99.90
31695;DHT22;18289;51.330;4.946;2022-12-18T13:20:32;0.50;99.90
31695;DHT22;18289;51.330;4.946;2022-12-18T13:22:59;0.40;99.90
31695;DHT22;18289;51.330;4.946;2022-12-18T13:28:04;0.30;99.90
31695;DHT22;18289;51.330;4.946;2022-12-18T13:35:40;0.30;99.90
31695;DHT22;18289;51.330;4.946;2022-12-18T13:38:19;0.30;99.90
31695;DHT22;18289;51.330;4.946;2022-12-18T13:43:23;0.20;99.90
31695;DHT22;18289;51.330;4.946;2022-12-18T13:45:59;0.20;99.90
31695;DHT22;18289;51.330;4.946;2022-12-18T13:48:25;0.20;99.90
31695;DHT22;18289;51.330;4.946;2022-12-18T13:51:02;0.30;99.90
31695;DHT22;18289;51.330;4.946;2022-12-18T13:54:13;0.20;99.90
31695;DHT22;18289;51.330;4.946;2022-12-18T13:56:24;0.20;99.90
31695;DHT22;18289;51.330;4.946;2022-12-18T13:59:08;0.20;99.90
31695;DHT22;18289;51.330;4.946;2022-12-18T14:01:36;0.20;99.90
31695;DHT22;18289;51.330;4.946;2022-12-18T14:04:08;0.10;99.90
31695;DHT22;18289;51.330;4.946;2022-12-18T14:06:34;0.00;99.90
31695;DHT22;18289;51.330;4.946;2022-12-18T14:09:00;0.10;99.90
31695;DHT22;18289;51.330;4.946;2022-12-18T14:11:25;0.20;99.90
31695;DHT22;18289;51.330;4.946;2022-12-18T14:13:51;0.20;99.90
31695;DHT22;18289;51.330;4.946;2022-12-18T14:16:17;0.10;99.90
31695;DHT22;18289;51.330;4.946;2022-12-18T14:21:19;0.30;99.90
31695;DHT22;18289;51.330;4.946;2022-12-18T14:23:46;0.40;99.90
31695;DHT22;18289;51.330;4.946;2022-12-18T14:28:46;0.30;99.90
31695;DHT22;18289;51.330;4.946;2022-12-18T14:31:20;0.10;99.90
31695;DHT22;18289;51.330;4.946;2022-12-18T14:33:46;0.20;99.90
31695;DHT22;18289;51.330;4.946;2022-12-18T14:36:14;0.20;99.90
31695;DHT22;18289;51.330;4.946;2022-12-18T14:38:41;0.20;99.90
31695;DHT22;18289;51.330;4.946;2022-12-18T14:41:10;0.00;99.90
31695;DHT22;18289;51.330;4.946;2022-12-18T14:43:37;0.10;99.90
31695;DHT22;18289;51.330;4.946;2022-12-18T14:46:03;0.00;99.90
31695;DHT22;18289;51.330;4.946;2022-12-18T14:56:12;0.10;99.90
31695;DHT22;18289;51.330;4.946;2022-12-18T14:58:39;0.00;99.90
31695;DHT22;18289;51.330;4.946;2022-12-18T15:01:05;0.00;99.90
31695;DHT22;18289;51.330;4.946;2022-12-18T15:03:31;0.00;99.90
31695;DHT22;18289;51.330;4.946;2022-12-18T15:05:58;-0.10;99.90
31695;DHT22;18289;51.330;4.946;2022-12-18T15:08:40;-0.10;99.90
31695;DHT22;18289;51.330;4.946;2022-12-18T15:11:23;0.00;99.90
31695;DHT22;18289;51.330;4.946;2022-12-18T15:13:50;-0.20;99.90
31695;DHT22;18289;51.330;4.946;2022-12-18T15:16:15;0.20;99.90
31695;DHT22;18289;51.330;4.946;2022-12-18T15:18:42;0.20;99.90
31695;DHT22;18289;51.330;4.946;2022-12-18T15:21:10;0.10;99.90
31695;DHT22;18289;51.330;4.946;2022-12-18T15:23:43;0.00;99.90
31695;DHT22;18289;51.330;4.946;2022-12-18T15:26:11;0.00;99.90
31695;DHT22;18289;51.330;4.946;2022-12-18T15:28:38;0.00;99.90
31695;DHT22;18289;51.330;4.946;2022-12-18T15:33:31;0.00;99.90
31695;DHT22;18289;51.330;4.946;2022-12-18T15:35:58;0.00;99.90
31695;DHT22;18289;51.330;4.946;2022-12-18T15:38:23;0.00;99.90
31695;DHT22;18289;51.330;4.946;2022-12-18T15:40:49;0.00;99.90
31695;DHT22;18289;51.330;4.946;2022-12-18T15:43:14;0.00;99.90
31695;DHT22;18289;51.330;4.946;2022-12-18T15:45:59;-0.10;99.90
31695;DHT22;18289;51.330;4.946;2022-12-18T15:48:25;-0.20;99.90
31695;DHT22;18289;51.330;4.946;2022-12-18T15:50:51;-0.10;99.90
31695;DHT22;18289;51.330;4.946;2022-12-18T15:53:17;-0.10;99.90
31695;DHT22;18289;51.330;4.946;2022-12-18T15:55:43;0.00;99.90
31695;DHT22;18289;51.330;4.946;2022-12-18T15:58:27;0.00;99.90
31695;DHT22;18289;51.330;4.946;2022-12-18T16:00:53;0.10;99.90
31695;DHT22;18289;51.330;4.946;2022-12-18T16:03:19;0.10;99.90
31695;DHT22;18289;51.330;4.946;2022-12-18T16:05:45;0.00;99.90
31695;DHT22;18289;51.330;4.946;2022-12-18T16:08:10;0.00;99.90
31695;DHT22;18289;51.330;4.946;2022-12-18T16:10:36;-0.10;99.90
31695;DHT22;18289;51.330;4.946;2022-12-18T16:13:02;-0.10;99.90
31695;DHT22;18289;51.330;4.946;2022-12-18T16:15:27;0.10;99.90
31695;DHT22;18289;51.330;4.946;2022-12-18T16:17:53;0.00;99.90
31695;DHT22;18289;51.330;4.946;2022-12-18T16:20:20;0.10;99.90
31695;DHT22;18289;51.330;4.946;2022-12-18T16:22:46;0.20;99.90
31695;DHT22;18289;51.330;4.946;2022-12-18T16:25:22;0.10;99.90
31695;DHT22;18289;51.330;4.946;2022-12-18T16:27:48;0.10;99.90
31695;DHT22;18289;51.330;4.946;2022-12-18T16:30:14;0.20;99.90
31695;DHT22;18289;51.330;4.946;2022-12-18T16:32:40;0.10;99.90
31695;DHT22;18289;51.330;4.946;2022-12-18T16:35:08;0.10;99.90
31695;DHT22;18289;51.330;4.946;2022-12-18T16:37:33;0.10;99.90
31695;DHT22;18289;51.330;4.946;2022-12-18T16:39:59;0.10;99.90
31695;DHT22;18289;51.330;4.946;2022-12-18T16:42:24;0.20;99.90
31695;DHT22;18289;51.330;4.946;2022-12-18T16:44:50;0.30;99.90
31695;DHT22;18289;51.330;4.946;2022-12-18T16:47:16;0.20;99.90
31695;DHT22;18289;51.330;4.946;2022-12-18T16:49:42;0.30;99.90
31695;DHT22;18289;51.330;4.946;2022-12-18T16:52:10;0.30;99.90
31695;DHT22;18289;51.330;4.946;2022-12-18T16:54:35;0.20;99.90
31695;DHT22;18289;51.330;4.946;2022-12-18T16:57:01;0.30;99.90
31695;DHT22;18289;51.330;4.946;2022-12-18T16:59:27;0.20;99.90
31695;DHT22;18289;51.330;4.946;2022-12-18T17:01:53;0.30;99.90
31695;DHT22;18289;51.330;4.946;2022-12-18T17:04:20;0.30;99.90
31695;DHT22;18289;51.330;4.946;2022-12-18T17:06:45;0.40;99.90
31695;DHT22;18289;51.330;4.946;2022-12-18T17:09:16;0.40;99.90
31695;DHT22;18289;51.330;4.946;2022-12-18T17:11:42;0.40;99.90
31695;DHT22;18289;51.330;4.946;2022-12-18T17:14:09;0.40;99.90
31695;DHT22;18289;51.330;4.946;2022-12-18T17:16:35;0.40;99.90
31695;DHT22;18289;51.330;4.946;2022-12-18T17:19:01;0.50;99.90
31695;DHT22;18289;51.330;4.946;2022-12-18T17:21:26;0.50;99.90
31695;DHT22;18289;51.330;4.946;2022-12-18T17:23:52;0.50;99.90
31695;DHT22;18289;51.330;4.946;2022-12-18T17:26:18;0.40;99.90
31695;DHT22;18289;51.330;4.946;2022-12-18T17:28:44;0.40;99.90